createdAt,value
2022-12-01T00:01:14.851Z,79.02
2022-12-01T00:03:41.925Z,79.71
2022-12-01T00:06:15.901Z,79.25
2022-12-01T00:09:02.971Z,78.90
2022-12-01T00:11:29.919Z,79.79
2022-12-01T00:13:56.662Z,80.20
2022-12-01T00:16:23.612Z,79.89
2022-12-01T00:18:52.523Z,80.14
2022-12-01T00:21:22.012Z,80.52
2022-12-01T00:23:51.172Z,80.34
2022-12-01T00:26:19.172Z,80.45
2022-12-01T00:28:54.264Z,80.36
2022-12-01T00:31:21.679Z,81.09
2022-12-01T00:33:49.735Z,81.36
2022-12-01T00:36:16.481Z,81.18
2022-12-01T00:38:43.279Z,80.67
2022-12-01T00:41:10.095Z,79.61
2022-12-01T00:43:36.865Z,80.19
2022-12-01T00:46:04.107Z,80.49
2022-12-01T00:48:30.982Z,80.37
2022-12-01T00:50:57.872Z,80.07
2022-12-01T00:53:24.899Z,80.60
2022-12-01T00:55:54.131Z,80.57
2022-12-01T00:58:21.632Z,80.35
2022-12-01T01:00:48.647Z,81.03
2022-12-01T01:03:15.704Z,81.49
2022-12-01T01:05:43.072Z,81.75
2022-12-01T01:08:12.241Z,81.46
2022-12-01T01:10:43.134Z,82.25
2022-12-01T01:13:10.231Z,82.11
2022-12-01T01:15:37.891Z,82.12
2022-12-01T01:18:05.511Z,82.32
2022-12-01T01:20:33.001Z,81.88
2022-12-01T01:22:59.867Z,81.62
2022-12-01T01:25:26.827Z,81.45
2022-12-01T01:27:53.611Z,81.06
2022-12-01T01:30:20.814Z,80.67
2022-12-01T01:32:47.626Z,81.56
2022-12-01T01:35:14.454Z,81.83
2022-12-01T01:37:41.238Z,81.54
2022-12-01T01:40:08.510Z,81.37
2022-12-01T01:42:35.416Z,80.01
2022-12-01T01:45:02.226Z,80.63
2022-12-01T01:47:36.893Z,81.07
2022-12-01T01:50:13.463Z,81.04
2022-12-01T01:52:48.774Z,81.03
2022-12-01T01:55:16.442Z,80.64
2022-12-01T01:57:45.056Z,79.19
2022-12-01T02:00:18.993Z,78.85
2022-12-01T02:02:47.573Z,79.54
2022-12-01T02:05:22.744Z,79.53
2022-12-01T02:07:51.975Z,80.06
2022-12-01T02:10:22.682Z,80.09
2022-12-01T02:13:08.393Z,80.72
2022-12-01T02:16:03.761Z,81.37
2022-12-01T02:18:42.576Z,82.16
2022-12-01T02:21:28.514Z,82.86
2022-12-01T02:24:13.277Z,83.69
2022-12-01T02:26:46.019Z,84.29
2022-12-01T02:29:43.547Z,84.88
2022-12-01T02:32:18.819Z,84.90
2022-12-01T02:34:48.627Z,84.51
2022-12-01T02:37:32.799Z,84.16
2022-12-01T02:40:20.549Z,84.45
2022-12-01T02:42:59.863Z,84.01
2022-12-01T02:45:37.261Z,84.16
2022-12-01T02:48:10.005Z,84.10
2022-12-01T02:50:39.906Z,83.81
2022-12-01T02:53:10.378Z,84.09
2022-12-01T02:55:37.166Z,82.89
2022-12-01T02:58:14.086Z,82.67
2022-12-01T03:00:52.114Z,83.70
2022-12-01T03:03:33.021Z,83.30
2022-12-01T03:06:14.539Z,82.95
2022-12-01T03:08:51.521Z,82.69
2022-12-01T03:11:28.942Z,83.37
2022-12-01T03:14:18.608Z,83.77
2022-12-01T03:16:50.963Z,83.37
2022-12-01T03:19:32.857Z,82.67
2022-12-01T03:22:12.574Z,82.34
2022-12-01T03:24:43.683Z,81.72
2022-12-01T03:27:14.123Z,81.28
2022-12-01T03:29:45.393Z,81.36
2022-12-01T03:32:12.880Z,81.50
2022-12-01T03:34:59.463Z,81.77
2022-12-01T03:37:37.962Z,82.92
2022-12-01T03:40:12.042Z,82.85
2022-12-01T03:42:48.071Z,82.92
2022-12-01T03:45:24.475Z,82.46
2022-12-01T03:47:51.802Z,81.58
2022-12-01T03:50:19.056Z,81.18
2022-12-01T03:53:26.612Z,82.13
2022-12-01T03:56:01.654Z,83.90
2022-12-01T03:58:36.500Z,85.23
2022-12-01T04:01:05.094Z,85.03
2022-12-01T04:03:31.952Z,84.47
2022-12-01T04:05:59.335Z,84.14
2022-12-01T04:08:26.391Z,83.58
2022-12-01T04:10:53.184Z,83.06
2022-12-01T04:13:23.353Z,83.76
2022-12-01T04:15:51.433Z,83.75
2022-12-01T04:18:19.225Z,84.30
2022-12-01T04:20:47.251Z,85.50
2022-12-01T04:23:34.013Z,84.83
2022-12-01T04:26:02.989Z,84.72
2022-12-01T04:28:29.938Z,83.39
2022-12-01T04:30:56.736Z,84.95
2022-12-01T04:33:23.448Z,84.85
2022-12-01T04:35:58.062Z,83.98
2022-12-01T04:38:30.044Z,86.30
2022-12-01T04:40:57.593Z,84.88
2022-12-01T04:43:24.358Z,84.34
2022-12-01T04:45:51.092Z,84.63
2022-12-01T04:48:17.805Z,84.51
2022-12-01T04:50:44.541Z,84.50
2022-12-01T04:53:11.337Z,84.46
2022-12-01T04:55:39.210Z,84.43
2022-12-01T04:58:06.319Z,84.56
2022-12-01T05:00:33.805Z,84.42
2022-12-01T05:03:00.991Z,85.34
2022-12-01T05:05:27.755Z,85.35
2022-12-01T05:07:54.680Z,83.95
2022-12-01T05:10:22.385Z,84.33
2022-12-01T05:12:49.662Z,84.59
2022-12-01T05:15:17.473Z,84.02
2022-12-01T05:17:44.652Z,83.82
2022-12-01T05:20:37.738Z,82.97
2022-12-01T05:23:06.076Z,83.85
2022-12-01T05:25:33.539Z,83.19
2022-12-01T05:28:00.449Z,83.74
2022-12-01T05:30:28.949Z,83.55
2022-12-01T05:32:56.004Z,83.61
2022-12-01T05:35:22.868Z,84.09
2022-12-01T05:37:49.885Z,84.96
2022-12-01T05:40:16.628Z,85.18
2022-12-01T05:42:43.647Z,85.46
2022-12-01T05:45:10.689Z,84.92
2022-12-01T05:47:37.473Z,84.54
2022-12-01T05:50:05.997Z,83.65
2022-12-01T05:52:36.156Z,83.77
2022-12-01T05:55:04.226Z,83.43
2022-12-01T05:57:32.673Z,83.97
2022-12-01T06:00:00.152Z,83.51
2022-12-01T06:02:27.059Z,83.53
2022-12-01T06:04:53.982Z,83.61
2022-12-01T06:07:22.455Z,83.41
2022-12-01T06:09:49.972Z,82.56
2022-12-01T06:12:17.293Z,83.02
2022-12-01T06:14:44.400Z,82.74
2022-12-01T06:17:11.791Z,82.08
2022-12-01T06:19:39.316Z,82.25
2022-12-01T06:22:06.158Z,82.59
2022-12-01T06:24:32.999Z,82.90
2022-12-01T06:26:59.745Z,83.60
2022-12-01T06:29:26.680Z,83.67
2022-12-01T06:31:53.449Z,84.02
2022-12-01T06:34:20.306Z,83.44
2022-12-01T06:36:47.020Z,83.80
2022-12-01T06:39:16.023Z,84.40
2022-12-01T06:41:43.094Z,84.86
2022-12-01T06:44:10.612Z,84.78
2022-12-01T06:46:37.934Z,83.26
2022-12-01T06:49:04.819Z,84.87
2022-12-01T06:51:33.913Z,85.17
2022-12-01T06:54:05.280Z,85.47
2022-12-01T06:56:32.504Z,85.25
2022-12-01T06:58:59.567Z,85.21
2022-12-01T07:01:26.803Z,84.75
2022-12-01T07:03:53.659Z,85.49
2022-12-01T07:06:20.770Z,84.81
2022-12-01T07:08:47.631Z,85.22
2022-12-01T07:11:15.757Z,85.02
2022-12-01T07:13:46.647Z,85.27
2022-12-01T07:16:13.467Z,84.75
2022-12-01T07:18:40.648Z,84.95
2022-12-01T07:21:12.519Z,84.94
2022-12-01T07:23:40.017Z,84.16
2022-12-01T07:26:10.434Z,84.72
2022-12-01T07:28:37.234Z,84.53
2022-12-01T07:31:09.388Z,84.13
2022-12-01T07:33:36.736Z,84.46
2022-12-01T07:36:04.993Z,84.63
2022-12-01T07:38:32.995Z,83.43
2022-12-01T07:41:04.660Z,83.69
2022-12-01T07:43:32.724Z,83.49
2022-12-01T07:46:22.297Z,83.07
2022-12-01T07:48:50.222Z,83.00
2022-12-01T07:51:17.719Z,83.31
2022-12-01T07:53:46.420Z,83.90
2022-12-01T07:56:13.738Z,83.77
2022-12-01T07:58:41.400Z,83.36
2022-12-01T08:01:18.908Z,83.22
2022-12-01T08:03:47.567Z,83.96
2022-12-01T08:06:14.250Z,83.83
2022-12-01T08:08:41.919Z,83.31
2022-12-01T08:11:17.024Z,83.43
2022-12-01T08:13:44.054Z,83.30
2022-12-01T08:16:14.202Z,83.29
2022-12-01T08:18:42.066Z,83.47
2022-12-01T08:21:14.351Z,83.29
2022-12-01T08:23:42.254Z,83.89
2022-12-01T08:26:15.226Z,83.80
2022-12-01T08:28:42.850Z,82.01
2022-12-01T08:31:22.609Z,81.18
2022-12-01T08:33:50.717Z,79.96
2022-12-01T08:36:20.227Z,80.00
2022-12-01T08:38:49.120Z,79.97
2022-12-01T08:41:16.231Z,79.34
2022-12-01T08:44:01.051Z,79.36
2022-12-01T08:46:31.597Z,78.65
2022-12-01T08:48:58.583Z,77.79
2022-12-01T08:51:26.345Z,77.23
2022-12-01T08:53:55.761Z,75.97
2022-12-01T08:56:28.414Z,75.59
2022-12-01T08:58:55.983Z,75.85
2022-12-01T09:01:23.535Z,75.99
2022-12-01T09:04:05.453Z,76.12
2022-12-01T09:06:39.623Z,76.09
2022-12-01T09:09:08.010Z,75.84
2022-12-01T09:11:34.744Z,75.23
2022-12-01T09:14:01.648Z,75.16
2022-12-01T09:16:28.520Z,75.30
2022-12-01T09:18:55.798Z,75.46
2022-12-01T09:21:33.002Z,75.63
2022-12-01T09:24:01.443Z,75.80
2022-12-01T09:26:28.632Z,75.04
2022-12-01T09:29:01.785Z,76.20
2022-12-01T09:31:28.799Z,76.49
2022-12-01T09:33:57.807Z,77.06
2022-12-01T09:36:25.513Z,77.15
2022-12-01T09:38:52.538Z,76.64
2022-12-01T09:41:21.114Z,76.93
2022-12-01T09:44:15.195Z,76.68
2022-12-01T09:46:52.632Z,74.48
2022-12-01T09:49:22.999Z,74.05
2022-12-01T09:51:54.449Z,74.42
2022-12-01T09:54:21.474Z,74.23
2022-12-01T09:56:53.346Z,73.44
2022-12-01T09:59:26.638Z,73.18
2022-12-01T10:02:01.181Z,73.74
2022-12-01T10:04:27.989Z,72.15
2022-12-01T10:07:13.145Z,73.26
2022-12-01T10:09:49.199Z,72.02
2022-12-01T10:12:18.945Z,69.57
2022-12-01T10:14:48.347Z,70.64
2022-12-01T10:17:20.927Z,71.20
2022-12-01T10:20:35.159Z,70.23
2022-12-01T10:23:10.523Z,69.19
2022-12-01T10:25:55.444Z,71.10
2022-12-01T10:28:27.905Z,70.33
2022-12-01T10:31:04.267Z,68.42
2022-12-01T10:33:39.499Z,68.32
2022-12-01T10:36:07.289Z,66.76
2022-12-01T10:38:36.598Z,68.08
2022-12-01T10:41:06.908Z,67.87
2022-12-01T10:43:44.690Z,67.36
2022-12-01T10:46:25.801Z,68.91
2022-12-01T10:48:58.538Z,70.12
2022-12-01T10:51:26.915Z,69.24
2022-12-01T10:54:07.670Z,68.64
2022-12-01T10:56:35.416Z,67.49
2022-12-01T10:59:15.804Z,66.89
2022-12-01T11:01:48.274Z,66.75
2022-12-01T11:04:45.690Z,66.67
2022-12-01T11:07:24.691Z,65.98
2022-12-01T11:10:04.319Z,65.88
2022-12-01T11:12:32.059Z,65.62
2022-12-01T11:14:59.268Z,65.69
2022-12-01T11:17:43.329Z,65.18
2022-12-01T11:20:30.323Z,63.47
2022-12-01T11:23:18.716Z,61.87
2022-12-01T11:25:59.245Z,61.54
2022-12-01T11:28:26.232Z,60.07
2022-12-01T11:31:02.712Z,57.02
2022-12-01T11:33:32.657Z,60.00
2022-12-01T11:35:59.580Z,62.08
2022-12-01T11:38:34.739Z,61.55
2022-12-01T11:41:01.673Z,62.10
2022-12-01T11:43:37.717Z,61.99
2022-12-01T11:46:09.813Z,63.96
2022-12-01T11:48:36.952Z,64.02
2022-12-01T11:51:29.938Z,62.33
2022-12-01T11:54:18.165Z,58.60
2022-12-01T11:56:46.699Z,61.19
2022-12-01T11:59:15.371Z,62.54
2022-12-01T12:02:18.521Z,64.10
2022-12-01T12:05:18.196Z,63.52
2022-12-01T12:08:05.020Z,62.88
2022-12-01T12:10:59.591Z,61.38
2022-12-01T12:13:35.239Z,61.66
2022-12-01T12:16:26.329Z,61.68
2022-12-01T12:19:52.489Z,61.61
2022-12-01T12:22:38.369Z,62.61
2022-12-01T12:25:16.963Z,63.07
2022-12-01T12:28:09.317Z,64.06
2022-12-01T12:31:14.779Z,63.91
2022-12-01T12:34:14.141Z,60.86
2022-12-01T12:36:52.061Z,58.89
2022-12-01T12:39:22.321Z,57.67
2022-12-01T12:41:54.259Z,59.44
2022-12-01T12:44:37.545Z,57.83
2022-12-01T12:47:04.672Z,57.10
2022-12-01T12:49:40.434Z,56.00
2022-12-01T12:52:18.125Z,57.26
2022-12-01T12:55:01.925Z,57.83
2022-12-01T12:57:44.593Z,58.22
2022-12-01T13:00:21.460Z,58.65
2022-12-01T13:03:10.781Z,56.41
2022-12-01T13:06:10.280Z,58.33
2022-12-01T13:08:57.444Z,58.42
2022-12-01T13:11:32.622Z,59.38
2022-12-01T13:14:07.793Z,58.73
2022-12-01T13:16:39.891Z,57.58
2022-12-01T13:19:22.754Z,58.25
2022-12-01T13:21:52.218Z,59.09
2022-12-01T13:24:23.547Z,59.08
2022-12-01T13:26:55.981Z,59.70
2022-12-01T13:29:25.043Z,60.88
2022-12-01T13:31:54.454Z,59.94
2022-12-01T13:34:42.122Z,61.34
2022-12-01T13:37:12.091Z,61.26
2022-12-01T13:39:41.568Z,59.80
2022-12-01T13:42:23.801Z,60.16
2022-12-01T13:45:02.204Z,58.41
2022-12-01T13:47:38.031Z,58.90
2022-12-01T13:50:53.075Z,58.86
2022-12-01T13:53:19.871Z,60.99
2022-12-01T13:55:58.035Z,62.47
2022-12-01T13:58:41.624Z,63.54
2022-12-01T14:01:21.254Z,63.72
2022-12-01T14:03:56.929Z,63.13
2022-12-01T14:06:38.458Z,63.84
2022-12-01T14:09:14.283Z,63.84
2022-12-01T14:11:54.403Z,64.35
2022-12-01T14:14:26.193Z,64.17
2022-12-01T14:16:58.483Z,64.33
2022-12-01T14:19:52.138Z,64.31
2022-12-01T14:22:33.135Z,64.09
2022-12-01T14:25:00.324Z,64.46
2022-12-01T14:27:45.338Z,64.94
2022-12-01T14:30:42.432Z,65.57
2022-12-01T14:33:40.105Z,65.84
2022-12-01T14:36:26.423Z,65.84
2022-12-01T14:39:00.120Z,65.85
2022-12-01T14:41:39.445Z,65.85
2022-12-01T14:44:11.553Z,65.40
2022-12-01T14:46:52.623Z,65.97
2022-12-01T14:49:28.263Z,65.70
2022-12-01T14:52:00.724Z,65.50
2022-12-01T14:54:35.029Z,65.89
2022-12-01T14:57:07.414Z,65.13
2022-12-01T14:59:35.220Z,64.47
2022-12-01T15:02:09.614Z,64.52
2022-12-01T15:05:06.382Z,64.55
2022-12-01T15:07:42.528Z,64.75
2022-12-01T15:10:36.196Z,65.39
2022-12-01T15:13:24.821Z,66.51
2022-12-01T15:15:54.940Z,66.51
2022-12-01T15:18:42.504Z,67.00
2022-12-01T15:21:17.015Z,67.92
2022-12-01T15:24:01.972Z,68.32
2022-12-01T15:26:49.882Z,69.48
2022-12-01T15:29:31.886Z,69.25
2022-12-01T15:32:21.043Z,69.63
2022-12-01T15:34:51.882Z,69.97
2022-12-01T15:37:24.772Z,69.88
2022-12-01T15:40:00.298Z,69.45
2022-12-01T15:42:39.631Z,69.43
2022-12-01T15:45:12.458Z,69.66
2022-12-01T15:47:43.533Z,69.72
2022-12-01T15:50:29.843Z,69.53
2022-12-01T15:52:58.240Z,70.16
2022-12-01T15:55:36.296Z,70.55
2022-12-01T15:58:08.074Z,71.42
2022-12-01T16:00:35.883Z,72.04
2022-12-01T16:03:03.337Z,72.73
2022-12-01T16:05:34.930Z,72.69
2022-12-01T16:08:20.147Z,73.19
2022-12-01T16:11:11.852Z,73.26
2022-12-01T16:13:50.003Z,72.79
2022-12-01T16:16:23.025Z,73.02
2022-12-01T16:19:05.992Z,72.82
2022-12-01T16:21:42.535Z,73.26
2022-12-01T16:24:15.927Z,73.48
2022-12-01T16:27:02.733Z,73.02
2022-12-01T16:29:33.948Z,73.82
2022-12-01T16:32:20.384Z,73.01
2022-12-01T16:34:48.990Z,73.61
2022-12-01T16:37:16.477Z,73.17
2022-12-01T16:39:43.386Z,73.25
2022-12-01T16:42:13.046Z,72.64
2022-12-01T16:44:40.300Z,71.92
2022-12-01T16:47:16.002Z,71.64
2022-12-01T16:49:42.885Z,72.04
2022-12-01T16:54:57.157Z,70.45
2022-12-01T16:57:24.034Z,71.09
2022-12-01T16:59:51.019Z,71.17
2022-12-01T17:02:18.292Z,71.89
2022-12-01T17:04:45.113Z,72.44
2022-12-01T17:07:11.912Z,72.55
2022-12-01T17:09:38.701Z,72.16
2022-12-01T17:12:05.932Z,71.44
2022-12-01T17:14:32.834Z,71.18
2022-12-01T17:16:59.558Z,71.51
2022-12-01T17:19:26.462Z,71.68
2022-12-01T17:21:53.323Z,70.73
2022-12-01T17:24:20.141Z,70.95
2022-12-01T17:26:46.830Z,70.50
2022-12-01T17:29:13.674Z,71.20
2022-12-01T17:31:40.474Z,71.07
2022-12-01T17:34:07.374Z,71.74
2022-12-01T17:36:34.604Z,71.58
2022-12-01T17:39:01.473Z,71.55
2022-12-01T17:41:32.548Z,71.50
2022-12-01T17:44:02.648Z,71.70
2022-12-01T17:46:30.263Z,71.74
2022-12-01T17:48:57.482Z,70.78
2022-12-01T17:51:24.395Z,71.29
2022-12-01T17:53:52.704Z,70.61
2022-12-01T17:56:19.447Z,71.48
2022-12-01T17:58:46.293Z,72.61
2022-12-01T18:01:19.176Z,71.08
2022-12-01T18:03:47.821Z,72.49
2022-12-01T18:06:15.669Z,72.60
2022-12-01T18:08:43.262Z,72.49
2022-12-01T18:11:14.115Z,72.07
2022-12-01T18:13:43.959Z,72.19
2022-12-01T18:16:22.529Z,73.81
2022-12-01T18:18:50.047Z,72.64
2022-12-01T18:21:19.463Z,72.90
2022-12-01T18:23:54.793Z,73.37
2022-12-01T18:26:22.957Z,73.45
2022-12-01T18:28:55.302Z,73.61
2022-12-01T18:31:22.421Z,73.68
2022-12-01T18:33:49.287Z,73.43
2022-12-01T18:36:19.012Z,73.74
2022-12-01T18:38:49.177Z,74.27
2022-12-01T18:41:19.258Z,75.21
2022-12-01T18:43:47.314Z,76.08
2022-12-01T18:46:15.892Z,75.91
2022-12-01T18:48:51.168Z,75.04
2022-12-01T18:51:19.191Z,74.28
2022-12-01T18:53:45.988Z,74.12
2022-12-01T18:56:15.212Z,74.63
2022-12-01T18:58:42.929Z,74.45
2022-12-01T19:01:22.156Z,74.36
2022-12-01T19:03:49.258Z,74.44
2022-12-01T19:06:16.973Z,74.43
2022-12-01T19:08:46.750Z,74.25
2022-12-01T19:11:13.862Z,75.00
2022-12-01T19:13:41.949Z,75.13
2022-12-01T19:16:14.193Z,75.62
2022-12-01T19:18:41.541Z,76.41
2022-12-01T19:21:10.464Z,76.41
2022-12-01T19:23:37.682Z,75.84
2022-12-01T19:26:10.839Z,75.75
2022-12-01T19:28:38.681Z,75.68
2022-12-01T19:31:11.236Z,76.28
2022-12-01T19:33:38.675Z,76.30
2022-12-01T19:36:14.759Z,76.18
2022-12-01T19:38:44.606Z,77.00
2022-12-01T19:41:13.413Z,77.10
2022-12-01T19:43:42.350Z,77.76
2022-12-01T19:46:11.996Z,77.46
2022-12-01T19:48:38.973Z,77.09
2022-12-01T19:51:06.555Z,77.28
2022-12-01T19:53:34.208Z,77.22
2022-12-01T19:56:03.120Z,77.69
2022-12-01T19:58:33.203Z,78.54
2022-12-01T20:01:09.071Z,78.43
2022-12-01T20:03:38.037Z,77.94
2022-12-01T20:06:07.704Z,78.17
2022-12-01T20:08:36.137Z,78.98
2022-12-01T20:11:04.409Z,78.92
2022-12-01T20:13:33.130Z,79.19
2022-12-01T20:16:14.668Z,78.74
2022-12-01T20:18:42.215Z,78.56
2022-12-01T20:21:20.578Z,77.81
2022-12-01T20:24:10.254Z,77.74
2022-12-01T20:26:40.526Z,77.86
2022-12-01T20:29:11.903Z,77.88
2022-12-01T20:31:39.943Z,77.49
2022-12-01T20:34:16.931Z,77.50
2022-12-01T20:36:44.898Z,77.48
2022-12-01T20:39:12.859Z,78.24
2022-12-01T20:41:44.014Z,77.96
2022-12-01T20:44:12.999Z,78.98
2022-12-01T20:46:41.723Z,79.04
2022-12-01T20:49:09.737Z,79.57
2022-12-01T20:51:36.579Z,79.71
2022-12-01T20:54:27.341Z,79.35
2022-12-01T20:56:53.246Z,79.81
2022-12-01T20:59:20.578Z,79.29
2022-12-01T21:01:48.396Z,79.15
2022-12-01T21:04:15.408Z,80.14
2022-12-01T21:06:42.404Z,80.37
2022-12-01T21:09:09.753Z,80.47
2022-12-01T21:12:05.614Z,80.40
2022-12-01T21:14:37.569Z,80.33
2022-12-01T21:17:19.056Z,80.66
2022-12-01T21:19:57.273Z,80.33
2022-12-01T21:22:25.651Z,80.74
2022-12-01T21:25:02.763Z,80.32
2022-12-01T21:27:29.942Z,81.60
2022-12-01T21:29:57.062Z,81.73
2022-12-01T21:32:33.377Z,80.98
2022-12-01T21:35:14.841Z,81.45
2022-12-01T21:37:41.668Z,81.10
2022-12-01T21:40:29.026Z,80.60
2022-12-01T21:42:58.792Z,80.30
2022-12-01T21:45:32.151Z,80.18
2022-12-01T21:48:16.047Z,81.01
2022-12-01T21:50:42.973Z,81.40
2022-12-01T21:53:20.457Z,81.06
2022-12-01T21:55:47.821Z,80.67
2022-12-01T21:58:29.864Z,80.21
2022-12-01T22:00:59.069Z,81.47
2022-12-01T22:03:31.079Z,80.79
2022-12-01T22:09:01.011Z,81.42
2022-12-01T22:11:29.112Z,81.31
2022-12-01T22:14:16.772Z,81.83
2022-12-01T22:16:51.683Z,82.52
2022-12-01T22:19:26.748Z,82.43
2022-12-01T22:22:02.392Z,82.38
2022-12-01T22:24:44.356Z,82.68
2022-12-01T22:27:32.854Z,82.01
2022-12-01T22:30:18.519Z,82.06
2022-12-01T22:32:51.276Z,82.16
2022-12-01T22:35:21.247Z,82.11
2022-12-01T22:38:00.038Z,82.28
2022-12-01T22:40:51.438Z,81.77
2022-12-01T22:43:18.219Z,81.29
2022-12-01T22:45:49.119Z,80.88
2022-12-01T22:48:21.882Z,81.07
2022-12-01T22:50:51.719Z,81.61
2022-12-01T22:53:29.225Z,81.32
2022-12-01T22:56:00.084Z,81.58
2022-12-01T22:58:41.221Z,81.28
2022-12-01T23:01:19.707Z,81.00
2022-12-01T23:03:46.579Z,81.85
2022-12-01T23:06:49.255Z,81.42
2022-12-01T23:09:16.180Z,80.73
2022-12-01T23:11:44.232Z,81.81
2022-12-01T23:14:18.839Z,81.57
2022-12-01T23:16:45.621Z,82.09
2022-12-01T23:19:12.354Z,82.03
2022-12-01T23:21:39.339Z,82.26
2022-12-01T23:24:06.833Z,82.33
2022-12-01T23:26:33.778Z,82.44
2022-12-01T23:29:01.461Z,81.66
2022-12-01T23:31:29.303Z,82.23
2022-12-01T23:33:56.078Z,82.78
2022-12-01T23:36:28.654Z,82.68
2022-12-01T23:39:02.612Z,82.30
2022-12-01T23:41:48.738Z,82.62
2022-12-01T23:44:24.592Z,82.13
2022-12-01T23:46:53.848Z,82.36
2022-12-01T23:49:24.200Z,82.73
2022-12-01T23:51:53.867Z,82.90
2022-12-01T23:54:41.052Z,82.80
2022-12-01T23:57:21.449Z,82.73
2022-12-01T23:59:54.541Z,81.69
